sensor_id;sensor_type;location;lat;lon;timestamp;pressure;altitude;pressure_sealevel;temperature;humidity
64139;BME280;50435;43.700;-79.318;2023-01-25T00:01:59;100976.72;;;2.53;50.01
64139;BME280;50435;43.700;-79.318;2023-01-25T00:04:28;100995.56;;;2.53;49.94
64139;BME280;50435;43.700;-79.318;2023-01-25T00:06:56;101017.95;;;2.09;50.75
64139;BME280;50435;43.700;-79.318;2023-01-25T00:09:24;101044.52;;;2.26;51.39
64139;BME280;50435;43.700;-79.318;2023-01-25T00:11:52;101065.35;;;1.35;51.84
64139;BME280;50435;43.700;-79.318;2023-01-25T00:14:19;101049.38;;;1.78;52.02
64139;BME280;50435;43.700;-79.318;2023-01-25T00:16:46;101022.24;;;1.93;52.21
64139;BME280;50435;43.700;-79.318;2023-01-25T00:19:14;100996.40;;;2.04;51.98
64139;BME280;50435;43.700;-79.318;2023-01-25T00:21:41;100974.18;;;1.93;51.15
64139;BME280;50435;43.700;-79.318;2023-01-25T00:24:09;100972.00;;;2.00;50.31
64139;BME280;50435;43.700;-79.318;2023-01-25T00:26:38;100989.45;;;2.05;49.72
64139;BME280;50435;43.700;-79.318;2023-01-25T00:29:05;100988.14;;;2.09;50.48
64139;BME280;50435;43.700;-79.318;2023-01-25T00:31:40;100983.42;;;2.12;51.56
64139;BME280;50435;43.700;-79.318;2023-01-25T00:34:51;100999.16;;;1.76;52.33
64139;BME280;50435;43.700;-79.318;2023-01-25T00:37:23;101001.74;;;1.38;52.63
64139;BME280;50435;43.700;-79.318;2023-01-25T00:39:53;101001.50;;;0.75;52.96
64139;BME280;50435;43.700;-79.318;2023-01-25T00:42:21;101018.68;;;1.52;53.00
64139;BME280;50435;43.700;-79.318;2023-01-25T00:44:48;101024.50;;;1.47;53.08
64139;BME280;50435;43.700;-79.318;2023-01-25T00:47:16;101032.23;;;1.58;52.91
64139;BME280;50435;43.700;-79.318;2023-01-25T00:49:44;101027.02;;;0.41;52.75
64139;BME280;50435;43.700;-79.318;2023-01-25T00:52:12;101038.35;;;0.99;53.15
64139;BME280;50435;43.700;-79.318;2023-01-25T00:54:39;101042.27;;;1.44;53.26
64139;BME280;50435;43.700;-79.318;2023-01-25T00:57:08;101048.81;;;1.36;53.39
64139;BME280;50435;43.700;-79.318;2023-01-25T00:59:35;101066.29;;;1.58;53.45
64139;BME280;50435;43.700;-79.318;2023-01-25T01:02:03;101063.82;;;0.51;53.65
64139;BME280;50435;43.700;-79.318;2023-01-25T01:04:31;101049.53;;;1.77;52.40
64139;BME280;50435;43.700;-79.318;2023-01-25T01:06:58;101047.16;;;1.28;52.42
64139;BME280;50435;43.700;-79.318;2023-01-25T01:09:26;101025.90;;;1.66;52.54
64139;BME280;50435;43.700;-79.318;2023-01-25T01:11:54;101015.59;;;1.54;52.79
64139;BME280;50435;43.700;-79.318;2023-01-25T01:14:22;101029.77;;;1.31;53.33
64139;BME280;50435;43.700;-79.318;2023-01-25T01:16:50;101038.27;;;0.42;53.14
64139;BME280;50435;43.700;-79.318;2023-01-25T01:19:18;101031.36;;;1.47;52.86
64139;BME280;50435;43.700;-79.318;2023-01-25T01:21:45;101033.51;;;1.44;53.35
64139;BME280;50435;43.700;-79.318;2023-01-25T01:24:14;101045.63;;;0.67;53.06
64139;BME280;50435;43.700;-79.318;2023-01-25T01:26:41;101054.76;;;0.61;52.50
64139;BME280;50435;43.700;-79.318;2023-01-25T01:29:09;101059.28;;;1.36;52.92
64139;BME280;50435;43.700;-79.318;2023-01-25T01:31:36;101063.18;;;1.52;52.64
64139;BME280;50435;43.700;-79.318;2023-01-25T01:34:03;101057.24;;;0.43;52.86
64139;BME280;50435;43.700;-79.318;2023-01-25T01:36:31;101049.39;;;0.89;51.31
64139;BME280;50435;43.700;-79.318;2023-01-25T01:38:59;101053.09;;;1.40;51.50
64139;BME280;50435;43.700;-79.318;2023-01-25T01:41:26;101051.16;;;0.83;52.13
64139;BME280;50435;43.700;-79.318;2023-01-25T01:43:53;101045.69;;;0.50;52.41
64139;BME280;50435;43.700;-79.318;2023-01-25T01:46:24;101051.63;;;1.34;52.58
64139;BME280;50435;43.700;-79.318;2023-01-25T01:48:56;101044.38;;;1.17;53.06
64139;BME280;50435;43.700;-79.318;2023-01-25T01:51:30;101046.90;;;1.28;53.24
64139;BME280;50435;43.700;-79.318;2023-01-25T01:54:04;101052.70;;;0.67;52.97
64139;BME280;50435;43.700;-79.318;2023-01-25T01:56:36;101074.80;;;1.45;52.85
64139;BME280;50435;43.700;-79.318;2023-01-25T01:59:06;101079.63;;;0.62;53.16
64139;BME280;50435;43.700;-79.318;2023-01-25T02:01:34;101079.35;;;0.98;53.36
64139;BME280;50435;43.700;-79.318;2023-01-25T02:04:03;101079.90;;;1.04;53.18
64139;BME280;50435;43.700;-79.318;2023-01-25T02:06:38;101088.95;;;1.07;52.67
64139;BME280;50435;43.700;-79.318;2023-01-25T02:09:08;101097.38;;;1.32;50.96
64139;BME280;50435;43.700;-79.318;2023-01-25T02:11:37;101097.93;;;1.54;50.28
64139;BME280;50435;43.700;-79.318;2023-01-25T02:14:05;101094.59;;;1.48;49.88
64139;BME280;50435;43.700;-79.318;2023-01-25T02:16:33;101082.34;;;2.07;49.52
64139;BME280;50435;43.700;-79.318;2023-01-25T02:19:00;101079.17;;;1.34;49.88
64139;BME280;50435;43.700;-79.318;2023-01-25T02:21:34;101069.28;;;1.80;49.98
64139;BME280;50435;43.700;-79.318;2023-01-25T02:24:08;101065.52;;;1.94;49.62
64139;BME280;50435;43.700;-79.318;2023-01-25T02:26:39;101076.19;;;1.79;49.83
64139;BME280;50435;43.700;-79.318;2023-01-25T02:29:08;101079.56;;;1.60;50.28
64139;BME280;50435;43.700;-79.318;2023-01-25T02:31:35;101087.02;;;1.76;50.40
64139;BME280;50435;43.700;-79.318;2023-01-25T02:34:03;101095.72;;;1.45;50.54
64139;BME280;50435;43.700;-79.318;2023-01-25T02:36:32;101102.44;;;1.71;50.51
64139;BME280;50435;43.700;-79.318;2023-01-25T02:39:03;101086.81;;;1.26;50.43
64139;BME280;50435;43.700;-79.318;2023-01-25T02:41:33;101073.03;;;1.49;50.51
64139;BME280;50435;43.700;-79.318;2023-01-25T02:44:04;101064.34;;;1.22;50.48
64139;BME280;50435;43.700;-79.318;2023-01-25T02:46:34;101068.47;;;1.40;50.61
64139;BME280;50435;43.700;-79.318;2023-01-25T02:49:03;101072.29;;;1.47;50.36
64139;BME280;50435;43.700;-79.318;2023-01-25T02:51:33;101064.51;;;1.70;50.36
64139;BME280;50435;43.700;-79.318;2023-01-25T02:54:02;101053.98;;;1.10;50.62
64139;BME280;50435;43.700;-79.318;2023-01-25T02:56:31;101057.10;;;1.33;50.63
64139;BME280;50435;43.700;-79.318;2023-01-25T02:58:58;101062.35;;;1.58;50.35
64139;BME280;50435;43.700;-79.318;2023-01-25T03:01:25;101056.20;;;1.79;50.62
64139;BME280;50435;43.700;-79.318;2023-01-25T03:03:52;101047.59;;;1.66;50.82
64139;BME280;50435;43.700;-79.318;2023-01-25T03:06:19;101035.93;;;1.48;51.07
64139;BME280;50435;43.700;-79.318;2023-01-25T03:08:47;101033.35;;;1.01;52.09
64139;BME280;50435;43.700;-79.318;2023-01-25T03:11:14;101031.59;;;0.84;52.61
64139;BME280;50435;43.700;-79.318;2023-01-25T03:13:41;101029.64;;;0.71;52.99
64139;BME280;50435;43.700;-79.318;2023-01-25T03:16:11;101027.07;;;0.84;53.20
64139;BME280;50435;43.700;-79.318;2023-01-25T03:18:39;101021.35;;;0.64;53.06
64139;BME280;50435;43.700;-79.318;2023-01-25T03:21:09;101019.65;;;0.82;53.22
64139;BME280;50435;43.700;-79.318;2023-01-25T03:23:38;101020.91;;;1.01;53.21
64139;BME280;50435;43.700;-79.318;2023-01-25T03:26:08;101012.56;;;0.33;53.61
64139;BME280;50435;43.700;-79.318;2023-01-25T03:28:37;101011.46;;;0.59;53.65
64139;BME280;50435;43.700;-79.318;2023-01-25T03:31:05;101010.17;;;0.29;53.65
64139;BME280;50435;43.700;-79.318;2023-01-25T03:33:34;101010.05;;;0.60;53.52
64139;BME280;50435;43.700;-79.318;2023-01-25T03:36:02;101009.30;;;0.22;53.76
64139;BME280;50435;43.700;-79.318;2023-01-25T03:38:30;101007.22;;;0.35;53.48
64139;BME280;50435;43.700;-79.318;2023-01-25T03:40:58;101001.94;;;0.79;53.56
64139;BME280;50435;43.700;-79.318;2023-01-25T03:43:26;101002.87;;;0.47;53.84
64139;BME280;50435;43.700;-79.318;2023-01-25T03:45:56;101002.72;;;0.61;53.37
64139;BME280;50435;43.700;-79.318;2023-01-25T03:48:24;100997.62;;;0.59;53.34
64139;BME280;50435;43.700;-79.318;2023-01-25T03:50:54;100998.70;;;0.73;53.54
64139;BME280;50435;43.700;-79.318;2023-01-25T03:53:23;100997.16;;;0.77;53.27
64139;BME280;50435;43.700;-79.318;2023-01-25T03:55:50;101002.22;;;0.61;53.64
64139;BME280;50435;43.700;-79.318;2023-01-25T03:58:17;101002.90;;;0.57;53.61
64139;BME280;50435;43.700;-79.318;2023-01-25T04:00:45;101006.05;;;0.46;53.24
64139;BME280;50435;43.700;-79.318;2023-01-25T04:03:12;101006.63;;;0.17;53.32
64139;BME280;50435;43.700;-79.318;2023-01-25T04:05:40;101006.70;;;0.54;52.98
64139;BME280;50435;43.700;-79.318;2023-01-25T04:08:07;101003.57;;;0.33;52.99
64139;BME280;50435;43.700;-79.318;2023-01-25T04:10:34;101002.54;;;0.40;53.16
64139;BME280;50435;43.700;-79.318;2023-01-25T04:13:02;101005.98;;;-0.14;52.83
64139;BME280;50435;43.700;-79.318;2023-01-25T04:15:29;101002.82;;;0.84;51.12
64139;BME280;50435;43.700;-79.318;2023-01-25T04:17:57;101009.17;;;0.91;50.66
64139;BME280;50435;43.700;-79.318;2023-01-25T04:20:25;101008.29;;;1.08;50.85
64139;BME280;50435;43.700;-79.318;2023-01-25T04:22:52;101007.55;;;0.92;51.04
64139;BME280;50435;43.700;-79.318;2023-01-25T04:25:20;101002.71;;;0.64;51.10
64139;BME280;50435;43.700;-79.318;2023-01-25T04:27:49;101010.00;;;0.82;51.29
64139;BME280;50435;43.700;-79.318;2023-01-25T04:30:16;101004.46;;;0.81;51.21
64139;BME280;50435;43.700;-79.318;2023-01-25T04:32:44;101006.93;;;0.75;51.22
64139;BME280;50435;43.700;-79.318;2023-01-25T04:35:11;101006.86;;;0.70;51.19
64139;BME280;50435;43.700;-79.318;2023-01-25T04:37:38;101001.05;;;0.84;51.43
64139;BME280;50435;43.700;-79.318;2023-01-25T04:40:08;100989.41;;;0.49;51.04
64139;BME280;50435;43.700;-79.318;2023-01-25T04:42:36;100992.01;;;0.73;51.11
64139;BME280;50435;43.700;-79.318;2023-01-25T04:45:03;100993.95;;;0.11;51.35
64139;BME280;50435;43.700;-79.318;2023-01-25T04:47:31;100986.62;;;0.46;51.54
64139;BME280;50435;43.700;-79.318;2023-01-25T04:49:59;100987.12;;;0.57;51.18
64139;BME280;50435;43.700;-79.318;2023-01-25T04:52:26;100991.10;;;0.44;51.56
64139;BME280;50435;43.700;-79.318;2023-01-25T04:54:54;100991.59;;;0.73;51.17
64139;BME280;50435;43.700;-79.318;2023-01-25T04:57:21;100996.41;;;0.48;51.46
64139;BME280;50435;43.700;-79.318;2023-01-25T04:59:48;101000.11;;;0.49;51.18
64139;BME280;50435;43.700;-79.318;2023-01-25T05:02:16;101001.61;;;0.51;51.18
64139;BME280;50435;43.700;-79.318;2023-01-25T05:04:43;101002.70;;;0.41;51.23
64139;BME280;50435;43.700;-79.318;2023-01-25T05:07:10;100996.91;;;0.36;51.80
64139;BME280;50435;43.700;-79.318;2023-01-25T05:09:38;101000.11;;;-0.11;53.36
64139;BME280;50435;43.700;-79.318;2023-01-25T05:12:05;100995.62;;;-0.17;53.50
64139;BME280;50435;43.700;-79.318;2023-01-25T05:14:32;101000.74;;;-0.18;53.51
64139;BME280;50435;43.700;-79.318;2023-01-25T05:17:00;100995.40;;;-0.87;53.49
64139;BME280;50435;43.700;-79.318;2023-01-25T05:19:28;101002.37;;;-0.44;54.05
64139;BME280;50435;43.700;-79.318;2023-01-25T05:21:55;101000.67;;;0.11;53.51
64139;BME280;50435;43.700;-79.318;2023-01-25T05:24:23;100993.48;;;-0.29;53.73
64139;BME280;50435;43.700;-79.318;2023-01-25T05:26:51;100990.96;;;-0.43;53.85
64139;BME280;50435;43.700;-79.318;2023-01-25T05:29:18;100989.20;;;-0.36;53.81
64139;BME280;50435;43.700;-79.318;2023-01-25T05:31:45;100984.80;;;-0.22;53.93
64139;BME280;50435;43.700;-79.318;2023-01-25T05:34:13;100983.16;;;-0.54;54.16
64139;BME280;50435;43.700;-79.318;2023-01-25T05:36:40;100971.95;;;-0.50;53.99
64139;BME280;50435;43.700;-79.318;2023-01-25T05:39:08;100965.93;;;-0.50;54.09
64139;BME280;50435;43.700;-79.318;2023-01-25T05:41:35;100960.77;;;-0.50;54.05
64139;BME280;50435;43.700;-79.318;2023-01-25T05:44:02;100958.76;;;-0.20;53.91
64139;BME280;50435;43.700;-79.318;2023-01-25T05:46:30;100957.27;;;-0.24;54.38
64139;BME280;50435;43.700;-79.318;2023-01-25T05:48:57;100954.39;;;-0.29;53.99
64139;BME280;50435;43.700;-79.318;2023-01-25T05:51:25;100947.29;;;-0.67;54.22
64139;BME280;50435;43.700;-79.318;2023-01-25T05:53:54;100947.17;;;-0.48;54.26
64139;BME280;50435;43.700;-79.318;2023-01-25T05:56:22;100945.07;;;-0.75;54.34
64139;BME280;50435;43.700;-79.318;2023-01-25T05:58:52;100943.26;;;-0.06;53.89
64139;BME280;50435;43.700;-79.318;2023-01-25T06:01:20;100941.03;;;-0.74;54.14
64139;BME280;50435;43.700;-79.318;2023-01-25T06:03:48;100939.39;;;-0.67;54.11
64139;BME280;50435;43.700;-79.318;2023-01-25T06:06:16;100943.15;;;-0.66;53.98
64139;BME280;50435;43.700;-79.318;2023-01-25T06:08:45;100945.97;;;-0.96;54.63
64139;BME280;50435;43.700;-79.318;2023-01-25T06:11:14;100948.71;;;-0.56;54.33
64139;BME280;50435;43.700;-79.318;2023-01-25T06:13:42;100953.82;;;-0.85;54.31
64139;BME280;50435;43.700;-79.318;2023-01-25T06:16:10;100954.49;;;-0.78;54.16
64139;BME280;50435;43.700;-79.318;2023-01-25T06:18:38;100958.30;;;-0.76;54.10
64139;BME280;50435;43.700;-79.318;2023-01-25T06:21:06;100954.88;;;-0.79;54.13
64139;BME280;50435;43.700;-79.318;2023-01-25T06:23:34;100956.01;;;-0.95;54.36
64139;BME280;50435;43.700;-79.318;2023-01-25T06:26:04;100954.45;;;-0.81;54.07
64139;BME280;50435;43.700;-79.318;2023-01-25T06:28:32;100951.73;;;-0.99;54.34
64139;BME280;50435;43.700;-79.318;2023-01-25T06:31:05;100948.35;;;-1.73;54.33
64139;BME280;50435;43.700;-79.318;2023-01-25T06:33:34;100948.23;;;-0.70;54.32
64139;BME280;50435;43.700;-79.318;2023-01-25T06:36:03;100944.14;;;-1.11;54.50
64139;BME280;50435;43.700;-79.318;2023-01-25T06:38:32;100934.26;;;-0.50;54.25
64139;BME280;50435;43.700;-79.318;2023-01-25T06:41:00;100932.88;;;-0.90;54.30
64139;BME280;50435;43.700;-79.318;2023-01-25T06:43:28;100927.24;;;-1.04;54.47
64139;BME280;50435;43.700;-79.318;2023-01-25T06:45:58;100931.49;;;-0.43;54.16
64139;BME280;50435;43.700;-79.318;2023-01-25T06:48:26;100934.77;;;-0.44;54.04
64139;BME280;50435;43.700;-79.318;2023-01-25T06:50:55;100934.49;;;-0.89;54.61
64139;BME280;50435;43.700;-79.318;2023-01-25T06:53:24;100945.27;;;-1.25;54.88
64139;BME280;50435;43.700;-79.318;2023-01-25T06:55:59;100949.02;;;-0.94;54.70
64139;BME280;50435;43.700;-79.318;2023-01-25T06:58:28;100950.05;;;-1.09;54.39
64139;BME280;50435;43.700;-79.318;2023-01-25T07:01:00;100952.50;;;-0.78;54.02
64139;BME280;50435;43.700;-79.318;2023-01-25T07:03:28;100961.70;;;-0.80;54.28
64139;BME280;50435;43.700;-79.318;2023-01-25T07:05:57;100962.05;;;-0.50;54.01
64139;BME280;50435;43.700;-79.318;2023-01-25T07:08:25;100965.84;;;-0.42;53.90
64139;BME280;50435;43.700;-79.318;2023-01-25T07:10:54;100966.93;;;-1.11;54.34
64139;BME280;50435;43.700;-79.318;2023-01-25T07:13:22;100965.48;;;-0.83;54.29
64139;BME280;50435;43.700;-79.318;2023-01-25T07:15:58;100963.34;;;-0.86;54.30
64139;BME280;50435;43.700;-79.318;2023-01-25T07:18:28;100959.92;;;-1.04;54.13
64139;BME280;50435;43.700;-79.318;2023-01-25T07:21:01;100960.96;;;-0.60;54.19
64139;BME280;50435;43.700;-79.318;2023-01-25T07:23:29;100963.25;;;-0.92;54.28
64139;BME280;50435;43.700;-79.318;2023-01-25T07:25:57;100965.00;;;-1.10;54.03
64139;BME280;50435;43.700;-79.318;2023-01-25T07:28:25;100971.00;;;-1.22;54.25
64139;BME280;50435;43.700;-79.318;2023-01-25T07:30:53;100975.01;;;-0.65;54.20
64139;BME280;50435;43.700;-79.318;2023-01-25T07:33:20;100970.13;;;-0.68;54.31
64139;BME280;50435;43.700;-79.318;2023-01-25T07:35:47;100969.84;;;-0.72;53.88
64139;BME280;50435;43.700;-79.318;2023-01-25T07:38:15;100966.39;;;-0.75;54.46
64139;BME280;50435;43.700;-79.318;2023-01-25T07:40:43;100962.93;;;-0.71;54.30
64139;BME280;50435;43.700;-79.318;2023-01-25T07:43:10;100961.46;;;-0.86;54.23
64139;BME280;50435;43.700;-79.318;2023-01-25T07:45:37;100954.80;;;-0.88;54.26
64139;BME280;50435;43.700;-79.318;2023-01-25T07:48:08;100954.76;;;-1.18;54.36
64139;BME280;50435;43.700;-79.318;2023-01-25T07:50:35;100950.34;;;-1.30;54.59
64139;BME280;50435;43.700;-79.318;2023-01-25T07:53:03;100935.38;;;-1.23;54.35
64139;BME280;50435;43.700;-79.318;2023-01-25T07:55:31;100932.16;;;-0.77;54.51
64139;BME280;50435;43.700;-79.318;2023-01-25T07:57:58;100927.98;;;-1.01;54.54
64139;BME280;50435;43.700;-79.318;2023-01-25T08:00:26;100928.21;;;-0.92;54.31
64139;BME280;50435;43.700;-79.318;2023-01-25T08:02:53;100929.29;;;-0.70;54.42
64139;BME280;50435;43.700;-79.318;2023-01-25T08:05:20;100929.86;;;-0.81;54.54
64139;BME280;50435;43.700;-79.318;2023-01-25T08:07:47;100927.82;;;-0.81;54.65
64139;BME280;50435;43.700;-79.318;2023-01-25T08:10:15;100926.15;;;-0.66;54.14
64139;BME280;50435;43.700;-79.318;2023-01-25T08:12:44;100921.83;;;-0.60;54.18
64139;BME280;50435;43.700;-79.318;2023-01-25T08:15:11;100913.26;;;-0.82;54.43
64139;BME280;50435;43.700;-79.318;2023-01-25T08:17:39;100918.52;;;-1.01;54.44
64139;BME280;50435;43.700;-79.318;2023-01-25T08:20:08;100922.54;;;-1.25;54.48
64139;BME280;50435;43.700;-79.318;2023-01-25T08:22:35;100923.16;;;-0.69;54.27
64139;BME280;50435;43.700;-79.318;2023-01-25T08:25:04;100919.30;;;-1.08;54.10
64139;BME280;50435;43.700;-79.318;2023-01-25T08:27:31;100918.19;;;-1.41;54.71
64139;BME280;50435;43.700;-79.318;2023-01-25T08:29:58;100914.73;;;-0.73;54.45
64139;BME280;50435;43.700;-79.318;2023-01-25T08:32:25;100917.80;;;-0.83;54.16
64139;BME280;50435;43.700;-79.318;2023-01-25T08:34:52;100913.82;;;-0.74;54.26
64139;BME280;50435;43.700;-79.318;2023-01-25T08:37:20;100912.51;;;-0.81;54.43
64139;BME280;50435;43.700;-79.318;2023-01-25T08:39:47;100916.30;;;-1.12;54.72
64139;BME280;50435;43.700;-79.318;2023-01-25T08:42:14;100923.38;;;-1.07;54.48
64139;BME280;50435;43.700;-79.318;2023-01-25T08:44:42;100928.83;;;-0.76;54.42
64139;BME280;50435;43.700;-79.318;2023-01-25T08:47:09;100930.74;;;-0.93;54.25
64139;BME280;50435;43.700;-79.318;2023-01-25T08:49:37;100930.65;;;-1.11;54.77
64139;BME280;50435;43.700;-79.318;2023-01-25T08:52:04;100936.38;;;-1.34;54.61
64139;BME280;50435;43.700;-79.318;2023-01-25T08:54:32;100935.58;;;-1.10;54.62
64139;BME280;50435;43.700;-79.318;2023-01-25T08:57:00;100936.08;;;-1.24;54.33
64139;BME280;50435;43.700;-79.318;2023-01-25T08:59:28;100942.22;;;-1.02;54.39
64139;BME280;50435;43.700;-79.318;2023-01-25T09:01:55;100945.52;;;-1.09;54.62
64139;BME280;50435;43.700;-79.318;2023-01-25T09:04:23;100942.44;;;-0.81;54.63
64139;BME280;50435;43.700;-79.318;2023-01-25T09:06:50;100941.88;;;-0.98;54.35
64139;BME280;50435;43.700;-79.318;2023-01-25T09:09:18;100948.82;;;-0.98;54.39
64139;BME280;50435;43.700;-79.318;2023-01-25T09:11:45;100945.86;;;-1.15;54.84
64139;BME280;50435;43.700;-79.318;2023-01-25T09:14:12;100947.00;;;-0.95;55.05
64139;BME280;50435;43.700;-79.318;2023-01-25T09:16:40;100940.87;;;-1.15;54.84
64139;BME280;50435;43.700;-79.318;2023-01-25T09:19:09;100940.02;;;-1.30;54.69
64139;BME280;50435;43.700;-79.318;2023-01-25T09:21:36;100943.41;;;-0.81;54.88
64139;BME280;50435;43.700;-79.318;2023-01-25T09:24:04;100943.80;;;-1.33;54.79
64139;BME280;50435;43.700;-79.318;2023-01-25T09:26:33;100939.95;;;-0.98;54.65
64139;BME280;50435;43.700;-79.318;2023-01-25T09:29:02;100931.60;;;-1.56;54.70
64139;BME280;50435;43.700;-79.318;2023-01-25T09:31:29;100923.39;;;-0.75;54.48
64139;BME280;50435;43.700;-79.318;2023-01-25T09:33:57;100915.88;;;-1.01;54.66
64139;BME280;50435;43.700;-79.318;2023-01-25T09:36:24;100912.00;;;-0.74;54.68
64139;BME280;50435;43.700;-79.318;2023-01-25T09:38:52;100908.48;;;-0.69;54.43
64139;BME280;50435;43.700;-79.318;2023-01-25T09:41:34;100902.42;;;-0.93;54.37
64139;BME280;50435;43.700;-79.318;2023-01-25T09:44:23;100891.28;;;-1.04;54.24
64139;BME280;50435;43.700;-79.318;2023-01-25T09:46:57;100890.65;;;-1.20;54.50
64139;BME280;50435;43.700;-79.318;2023-01-25T09:49:40;100886.83;;;-0.93;54.68
64139;BME280;50435;43.700;-79.318;2023-01-25T09:52:26;100882.57;;;-0.68;54.84
64139;BME280;50435;43.700;-79.318;2023-01-25T09:54:57;100871.39;;;-1.16;54.71
64139;BME280;50435;43.700;-79.318;2023-01-25T09:57:29;100870.36;;;-1.26;54.85
64139;BME280;50435;43.700;-79.318;2023-01-25T10:00:03;100865.30;;;-1.11;55.00
64139;BME280;50435;43.700;-79.318;2023-01-25T10:02:38;100868.48;;;-1.00;55.16
64139;BME280;50435;43.700;-79.318;2023-01-25T10:05:10;100865.77;;;-1.10;54.92
64139;BME280;50435;43.700;-79.318;2023-01-25T10:07:49;100861.45;;;-0.68;55.25
64139;BME280;50435;43.700;-79.318;2023-01-25T10:10:23;100862.29;;;-0.75;55.33
64139;BME280;50435;43.700;-79.318;2023-01-25T10:12:53;100860.99;;;-0.73;55.25
64139;BME280;50435;43.700;-79.318;2023-01-25T10:15:23;100859.76;;;-1.23;55.66
64139;BME280;50435;43.700;-79.318;2023-01-25T10:17:58;100856.29;;;-1.01;55.67
64139;BME280;50435;43.700;-79.318;2023-01-25T10:20:32;100850.42;;;-1.26;55.51
64139;BME280;50435;43.700;-79.318;2023-01-25T10:23:18;100845.70;;;-1.61;55.72
64139;BME280;50435;43.700;-79.318;2023-01-25T10:25:57;100840.08;;;-1.05;55.86
64139;BME280;50435;43.700;-79.318;2023-01-25T10:28:35;100832.59;;;-0.91;55.27
64139;BME280;50435;43.700;-79.318;2023-01-25T10:31:09;100820.88;;;-1.18;55.69
64139;BME280;50435;43.700;-79.318;2023-01-25T10:33:43;100813.25;;;-1.18;55.73
64139;BME280;50435;43.700;-79.318;2023-01-25T10:36:13;100808.53;;;-0.82;56.05
64139;BME280;50435;43.700;-79.318;2023-01-25T10:38:43;100806.67;;;-1.25;56.01
64139;BME280;50435;43.700;-79.318;2023-01-25T10:41:17;100798.40;;;-0.99;56.11
64139;BME280;50435;43.700;-79.318;2023-01-25T10:43:45;100789.95;;;-0.73;55.93
64139;BME280;50435;43.700;-79.318;2023-01-25T10:46:19;100783.06;;;-0.83;55.74
64139;BME280;50435;43.700;-79.318;2023-01-25T10:48:47;100782.61;;;-0.89;56.10
64139;BME280;50435;43.700;-79.318;2023-01-25T10:51:32;100774.56;;;-0.82;55.50
64139;BME280;50435;43.700;-79.318;2023-01-25T10:54:02;100770.49;;;-1.57;55.74
64139;BME280;50435;43.700;-79.318;2023-01-25T10:56:32;100767.44;;;-0.88;56.05
64139;BME280;50435;43.700;-79.318;2023-01-25T10:59:16;100759.11;;;-1.28;55.97
64139;BME280;50435;43.700;-79.318;2023-01-25T11:01:44;100750.39;;;-1.13;56.43
64139;BME280;50435;43.700;-79.318;2023-01-25T11:04:44;100747.23;;;-1.04;56.15
64139;BME280;50435;43.700;-79.318;2023-01-25T11:07:25;100745.34;;;-1.12;56.55
64139;BME280;50435;43.700;-79.318;2023-01-25T11:09:53;100737.09;;;-0.64;56.21
64139;BME280;50435;43.700;-79.318;2023-01-25T11:12:21;100710.78;;;-1.04;56.18
64139;BME280;50435;43.700;-79.318;2023-01-25T11:14:49;100697.70;;;-0.94;56.12
64139;BME280;50435;43.700;-79.318;2023-01-25T11:17:23;100682.40;;;-0.88;55.72
64139;BME280;50435;43.700;-79.318;2023-01-25T11:20:06;100675.77;;;-0.79;55.71
64139;BME280;50435;43.700;-79.318;2023-01-25T11:22:34;100691.09;;;-0.63;55.26
64139;BME280;50435;43.700;-79.318;2023-01-25T11:25:25;100695.06;;;-1.07;55.12
64139;BME280;50435;43.700;-79.318;2023-01-25T11:28:09;100702.65;;;-0.29;55.13
64139;BME280;50435;43.700;-79.318;2023-01-25T11:30:38;100708.99;;;-0.15;54.55
64139;BME280;50435;43.700;-79.318;2023-01-25T11:33:09;100694.95;;;-0.55;54.75
64139;BME280;50435;43.700;-79.318;2023-01-25T11:35:42;100681.38;;;-0.46;54.62
64139;BME280;50435;43.700;-79.318;2023-01-25T11:38:16;100671.97;;;-0.46;54.71
64139;BME280;50435;43.700;-79.318;2023-01-25T11:40:48;100678.66;;;-0.48;54.71
64139;BME280;50435;43.700;-79.318;2023-01-25T11:43:41;100686.89;;;-0.42;54.75
64139;BME280;50435;43.700;-79.318;2023-01-25T11:46:21;100689.38;;;-0.31;54.55
64139;BME280;50435;43.700;-79.318;2023-01-25T11:49:04;100695.31;;;0.00;54.40
64139;BME280;50435;43.700;-79.318;2023-01-25T11:51:42;100694.31;;;-0.28;54.33
64139;BME280;50435;43.700;-79.318;2023-01-25T11:54:32;100702.03;;;-0.26;54.38
64139;BME280;50435;43.700;-79.318;2023-01-25T11:57:12;100701.96;;;-0.75;54.47
64139;BME280;50435;43.700;-79.318;2023-01-25T11:59:57;100710.06;;;-0.34;54.56
64139;BME280;50435;43.700;-79.318;2023-01-25T12:02:40;100725.66;;;-0.21;54.50
64139;BME280;50435;43.700;-79.318;2023-01-25T12:05:23;100728.83;;;-0.27;54.58
64139;BME280;50435;43.700;-79.318;2023-01-25T12:08:02;100720.79;;;-0.24;54.45
64139;BME280;50435;43.700;-79.318;2023-01-25T12:10:41;100708.82;;;-0.14;54.25
64139;BME280;50435;43.700;-79.318;2023-01-25T12:13:18;100719.85;;;-0.14;54.40
64139;BME280;50435;43.700;-79.318;2023-01-25T12:16:01;100716.51;;;0.13;54.37
64139;BME280;50435;43.700;-79.318;2023-01-25T12:18:46;100702.81;;;-0.09;54.26
64139;BME280;50435;43.700;-79.318;2023-01-25T12:21:25;100690.64;;;-0.08;54.40
64139;BME280;50435;43.700;-79.318;2023-01-25T12:24:13;100685.92;;;-0.22;54.59
64139;BME280;50435;43.700;-79.318;2023-01-25T12:26:49;100678.56;;;-0.05;54.19
64139;BME280;50435;43.700;-79.318;2023-01-25T12:29:24;100677.21;;;-0.11;54.33
64139;BME280;50435;43.700;-79.318;2023-01-25T12:31:58;100680.61;;;-0.18;54.45
64139;BME280;50435;43.700;-79.318;2023-01-25T12:34:32;100673.17;;;-0.16;54.44
64139;BME280;50435;43.700;-79.318;2023-01-25T12:37:07;100676.92;;;-0.85;54.44
64139;BME280;50435;43.700;-79.318;2023-01-25T12:39:41;100664.98;;;-0.03;54.19
64139;BME280;50435;43.700;-79.318;2023-01-25T12:42:17;100659.12;;;-0.04;54.24
64139;BME280;50435;43.700;-79.318;2023-01-25T12:44:49;100632.06;;;0.02;54.28
64139;BME280;50435;43.700;-79.318;2023-01-25T12:47:22;100622.84;;;-0.02;54.29
64139;BME280;50435;43.700;-79.318;2023-01-25T12:49:54;100625.84;;;0.11;53.99